< < Back
Terminal Aerodrome Forecast


Current Version              Previous Versions:   1  2  3  4  5  6  7  8  9  

Terminal Aerodrome Forecast

114
FTUS44 KMOB 101732
TAFMOB
TAF
KMOB 101732Z 1018/1118 29008KT P6SM SKC
     FM110000 22005KT P6SM SKC
     FM111600 23009KT P6SM SKC=



Latest METAR

309
SAUS80 KWBC 110800
MTRMOB
METAR KMOB 110756Z AUTO 24005KT 10SM CLR 07/03 A3021 RMK AO2 SLP228
T00720028


USA.gov is the U.S. government's official web portal to all federal, state and local government web resources and services.